SYR340 OSDI-LFPO
Flight info
| Callsign | SYR340 |
|---|---|
| Flight time | N/A |
| Altitude | 37000 |
| Route | LEBOR UR655 BALMA L620 VESAR UT38 VAPEK DCT EKSEN DCT MINSU DCT D330Z DCT FSK UL608 DISOR DCT LONTA UL608 DOLEV DCT MO425 DCT REMPI DCT PUL31 DCT LABIN DCT EKLAP DCT PABRO DCT MC588 DCT NITAM DCT KOGAS DCT PAS T37 IBABA UB37 DJL |
| Aircraft | A359/H-SDE2E3GHIJ3J4J5LM1ORWXY/LB1D1 |
Departure
| Time | 2026-04-23 08:37 |
|---|---|
| Airport | Damascus International Airport (OSDI) |
Arrival
| Time | N/A |
|---|---|
| Airport | Paris-Orly Airport (LFPO) |
| Time | Latitude | Longitude | Altitude | Speed | Heading |
|---|---|---|---|---|---|
| 2026-04-23 08:25 | 33.41183 | 36.51469 | 2006 ft | 0 kts | 228° |
| 2026-04-23 08:28 | 33.41186 | 36.51473 | 2006 ft | 4 kts | 230° |
| 2026-04-23 08:29 | 33.41201 | 36.51499 | 2002 ft | 4 kts | 228° |
| 2026-04-23 08:29 | 33.41219 | 36.51513 | 2002 ft | 4 kts | 194° |
| 2026-04-23 08:29 | 33.41244 | 36.51513 | 2003 ft | 4 kts | 153° |
| 2026-04-23 08:29 | 33.41262 | 36.51499 | 2002 ft | 1 kts | 139° |
| 2026-04-23 08:30 | 33.41265 | 36.51496 | 2002 ft | 0 kts | 139° |
| 2026-04-23 08:33 | 33.41259 | 36.51501 | 2002 ft | 4 kts | 139° |
| 2026-04-23 08:33 | 33.41233 | 36.51529 | 2002 ft | 6 kts | 138° |
| 2026-04-23 08:33 | 33.41196 | 36.51581 | 2003 ft | 9 kts | 117° |
| 2026-04-23 08:34 | 33.41183 | 36.51661 | 2003 ft | 11 kts | 94° |
| 2026-04-23 08:34 | 33.41178 | 36.51757 | 2005 ft | 13 kts | 94° |
| 2026-04-23 08:34 | 33.41172 | 36.51868 | 2003 ft | 14 kts | 93° |
| 2026-04-23 08:34 | 33.41146 | 36.51981 | 2004 ft | 14 kts | 133° |
| 2026-04-23 08:35 | 33.41071 | 36.52064 | 2002 ft | 15 kts | 138° |
| 2026-04-23 08:35 | 33.40987 | 36.52152 | 2003 ft | 17 kts | 137° |
| 2026-04-23 08:35 | 33.40897 | 36.52247 | 2003 ft | 18 kts | 138° |
| 2026-04-23 08:35 | 33.40801 | 36.52349 | 2004 ft | 19 kts | 139° |
| 2026-04-23 08:36 | 33.40700 | 36.52436 | 2004 ft | 17 kts | 166° |
| 2026-04-23 08:36 | 33.40589 | 36.52420 | 2004 ft | 16 kts | 217° |
| 2026-04-23 08:36 | 33.40490 | 36.52286 | 2003 ft | 43 kts | 229° |
| 2026-04-23 08:36 | 33.40138 | 36.51814 | 2009 ft | 107 kts | 229° |
| 2026-04-23 08:37 | 33.39515 | 36.50976 | 2004 ft | 160 kts | 228° |
| 2026-04-23 08:37 | 33.38751 | 36.49950 | 2539 ft | 163 kts | 228° |
| 2026-04-23 08:37 | 33.38007 | 36.48950 | 3252 ft | 163 kts | 227° |
| 2026-04-23 08:37 | 33.37288 | 36.47791 | 3568 ft | 185 kts | 240° |
| 2026-04-23 08:38 | 33.36956 | 36.46220 | 3834 ft | 210 kts | 271° |
| 2026-04-23 08:38 | 33.37595 | 36.44604 | 4247 ft | 230 kts | 314° |
| 2026-04-23 08:38 | 33.39087 | 36.43763 | 4651 ft | 254 kts | 351° |
| 2026-04-23 08:38 | 33.40864 | 36.44169 | 5128 ft | 272 kts | 28° |
| 2026-04-23 08:39 | 33.42187 | 36.45780 | 5857 ft | 278 kts | 63° |
| 2026-04-23 08:39 | 33.42994 | 36.47850 | 6582 ft | 280 kts | 52° |
| 2026-04-23 08:39 | 33.44463 | 36.49378 | 7305 ft | 283 kts | 31° |
| 2026-04-23 08:39 | 33.46192 | 36.50538 | 8059 ft | 288 kts | 19° |
| 2026-04-23 08:40 | 33.48144 | 36.51128 | 8842 ft | 291 kts | 5° |
| 2026-04-23 08:40 | 33.50160 | 36.51412 | 9721 ft | 293 kts | 1° |
| 2026-04-23 08:40 | 33.52217 | 36.51602 | 10434 ft | 302 kts | 0° |
| 2026-04-23 08:40 | 33.54389 | 36.51751 | 10810 ft | 323 kts | 359° |
| 2026-04-23 08:41 | 33.56702 | 36.51881 | 11157 ft | 342 kts | 359° |
| 2026-04-23 08:41 | 33.59148 | 36.52007 | 11512 ft | 360 kts | 359° |
| 2026-04-23 08:41 | 33.61692 | 36.52135 | 12104 ft | 369 kts | 359° |
| 2026-04-23 08:41 | 33.64244 | 36.52262 | 12796 ft | 374 kts | 359° |
| 2026-04-23 08:42 | 33.66868 | 36.52390 | 13510 ft | 379 kts | 359° |
| 2026-04-23 08:42 | 33.69517 | 36.52517 | 14208 ft | 383 kts | 359° |
| 2026-04-23 08:42 | 33.72202 | 36.52646 | 14858 ft | 387 kts | 359° |
| 2026-04-23 08:42 | 33.74906 | 36.52775 | 15546 ft | 391 kts | 359° |
| 2026-04-23 08:43 | 33.77647 | 36.52905 | 16221 ft | 395 kts | 359° |
| 2026-04-23 08:43 | 33.80419 | 36.53036 | 16919 ft | 399 kts | 359° |
| 2026-04-23 08:43 | 33.83205 | 36.53169 | 17594 ft | 403 kts | 360° |
| 2026-04-23 08:43 | 33.85990 | 36.53303 | 18232 ft | 408 kts | 360° |
| 2026-04-23 08:44 | 33.88146 | 36.53498 | 18648 ft | 412 kts | 3° |
| 2026-04-23 08:44 | 33.91009 | 36.53874 | 19238 ft | 416 kts | 4° |
| 2026-04-23 08:44 | 33.93900 | 36.54261 | 19830 ft | 420 kts | 4° |
| 2026-04-23 08:44 | 33.96829 | 36.54640 | 20436 ft | 425 kts | 4° |
| 2026-04-23 08:45 | 33.99786 | 36.55012 | 21046 ft | 429 kts | 3° |
| 2026-04-23 08:45 | 34.02766 | 36.55383 | 21680 ft | 433 kts | 3° |
| 2026-04-23 08:45 | 34.05780 | 36.55754 | 22296 ft | 437 kts | 3° |
| 2026-04-23 08:45 | 34.08828 | 36.56128 | 22897 ft | 441 kts | 3° |
| 2026-04-23 08:46 | 34.11863 | 36.56500 | 23476 ft | 445 kts | 3° |
| 2026-04-23 08:46 | 34.14962 | 36.56874 | 23983 ft | 449 kts | 2° |
| 2026-04-23 08:46 | 34.18087 | 36.56992 | 24507 ft | 450 kts | 354° |
| 2026-04-23 08:46 | 34.21177 | 36.56472 | 25045 ft | 448 kts | 343° |
| 2026-04-23 08:47 | 34.24110 | 36.55259 | 25597 ft | 445 kts | 332° |
| 2026-04-23 08:47 | 34.26790 | 36.53403 | 26135 ft | 443 kts | 321° |
| 2026-04-23 08:47 | 34.29121 | 36.50981 | 26640 ft | 441 kts | 310° |
| 2026-04-23 08:47 | 34.31026 | 36.48083 | 27151 ft | 440 kts | 300° |
| 2026-04-23 08:48 | 34.32451 | 36.44809 | 27652 ft | 440 kts | 290° |
| 2026-04-23 08:48 | 34.33347 | 36.41276 | 28143 ft | 440 kts | 279° |
| 2026-04-23 08:48 | 34.33684 | 36.37643 | 28618 ft | 441 kts | 269° |
| 2026-04-23 08:48 | 34.33457 | 36.33942 | 29097 ft | 442 kts | 259° |
| 2026-04-23 08:49 | 34.32657 | 36.30332 | 29547 ft | 445 kts | 249° |
| 2026-04-23 08:49 | 34.31368 | 36.26914 | 29999 ft | 448 kts | 243° |
| 2026-04-23 08:49 | 34.29950 | 36.23548 | 30405 ft | 450 kts | 245° |
| 2026-04-23 08:49 | 34.28829 | 36.19998 | 30779 ft | 452 kts | 254° |
| 2026-04-23 08:50 | 34.28272 | 36.16250 | 31190 ft | 454 kts | 264° |
| 2026-04-23 08:50 | 34.28183 | 36.12430 | 31580 ft | 455 kts | 269° |
| 2026-04-23 08:50 | 34.28257 | 36.08597 | 31952 ft | 457 kts | 271° |
| 2026-04-23 08:50 | 34.28406 | 36.04801 | 32315 ft | 458 kts | 271° |
| 2026-04-23 08:51 | 34.28582 | 36.00954 | 32780 ft | 457 kts | 271° |
| 2026-04-23 08:51 | 34.28761 | 35.97130 | 33387 ft | 452 kts | 271° |
| 2026-04-23 08:51 | 34.28954 | 35.93355 | 34001 ft | 448 kts | 271° |
| 2026-04-23 08:51 | 34.29149 | 35.89607 | 34495 ft | 444 kts | 271° |
| 2026-04-23 08:52 | 34.29337 | 35.85879 | 34946 ft | 441 kts | 271° |
| 2026-04-23 08:52 | 34.29513 | 35.82228 | 35378 ft | 438 kts | 271° |
| 2026-04-23 08:52 | 34.29682 | 35.78548 | 35744 ft | 436 kts | 271° |
| 2026-04-23 08:52 | 34.29845 | 35.74892 | 36124 ft | 434 kts | 271° |
| 2026-04-23 08:53 | 34.30152 | 35.71253 | 36399 ft | 436 kts | 277° |
| 2026-04-23 08:53 | 34.30815 | 35.67643 | 36680 ft | 439 kts | 283° |
| 2026-04-23 08:53 | 34.31704 | 35.64112 | 36938 ft | 439 kts | 284° |
| 2026-04-23 08:53 | 34.32655 | 35.60607 | 36994 ft | 437 kts | 285° |
| 2026-04-23 08:54 | 34.34615 | 35.53710 | 36992 ft | 436 kts | 285° |
| 2026-04-23 08:54 | 34.36599 | 35.46762 | 36998 ft | 436 kts | 285° |
| 2026-04-23 08:55 | 34.38566 | 35.39792 | 36992 ft | 437 kts | 285° |
| 2026-04-23 08:55 | 34.40521 | 35.32811 | 36987 ft | 437 kts | 285° |
| 2026-04-23 08:56 | 34.42457 | 35.25875 | 36987 ft | 437 kts | 285° |
| 2026-04-23 08:56 | 34.44402 | 35.18889 | 36987 ft | 438 kts | 285° |
| 2026-04-23 08:57 | 34.46478 | 35.11926 | 36991 ft | 441 kts | 290° |
| 2026-04-23 08:57 | 34.49104 | 35.06575 | 36987 ft | 449 kts | 303° |
| 2026-04-23 08:58 | 34.53676 | 35.01297 | 36994 ft | 463 kts | 320° |
| 2026-04-23 08:58 | 34.59191 | 34.97151 | 36989 ft | 467 kts | 324° |
| 2026-04-23 08:59 | 34.64841 | 34.93209 | 36984 ft | 468 kts | 324° |
| 2026-04-23 08:59 | 34.70456 | 34.89287 | 36985 ft | 468 kts | 324° |
| 2026-04-23 09:00 | 34.76088 | 34.85298 | 36985 ft | 468 kts | 324° |
| 2026-04-23 09:00 | 34.81707 | 34.81289 | 36989 ft | 468 kts | 324° |
| 2026-04-23 09:01 | 34.87329 | 34.77269 | 36979 ft | 468 kts | 324° |
| 2026-04-23 09:01 | 34.92945 | 34.73247 | 36992 ft | 469 kts | 324° |
| 2026-04-23 09:02 | 34.98564 | 34.69219 | 36979 ft | 468 kts | 324° |
| 2026-04-23 09:02 | 35.04185 | 34.65185 | 36981 ft | 469 kts | 324° |
| 2026-04-23 09:03 | 35.09817 | 34.61148 | 36985 ft | 468 kts | 324° |
| 2026-04-23 09:03 | 35.15398 | 34.57135 | 36979 ft | 468 kts | 324° |
| 2026-04-23 09:04 | 35.21012 | 34.53093 | 36980 ft | 468 kts | 324° |
| 2026-04-23 09:04 | 35.26633 | 34.49040 | 36964 ft | 468 kts | 324° |
| 2026-04-23 09:05 | 35.32252 | 34.44981 | 36976 ft | 468 kts | 324° |
| 2026-04-23 09:05 | 35.37835 | 34.40944 | 36977 ft | 468 kts | 324° |
| 2026-04-23 09:06 | 35.43451 | 34.36875 | 36976 ft | 468 kts | 324° |
| 2026-04-23 09:06 | 35.49060 | 34.32804 | 36977 ft | 468 kts | 324° |
| 2026-04-23 09:07 | 35.54675 | 34.28723 | 36973 ft | 468 kts | 323° |
| 2026-04-23 09:07 | 35.60284 | 34.24639 | 36973 ft | 468 kts | 324° |
| 2026-04-23 09:08 | 35.65883 | 34.20555 | 36986 ft | 468 kts | 323° |
| 2026-04-23 09:08 | 35.71484 | 34.16466 | 36976 ft | 468 kts | 323° |
| 2026-04-23 09:09 | 35.77060 | 34.12364 | 36977 ft | 468 kts | 323° |
| 2026-04-23 09:09 | 35.82647 | 34.08225 | 36974 ft | 468 kts | 323° |
| 2026-04-23 09:10 | 35.90800 | 34.01750 | 36980 ft | 461 kts | 314° |
| 2026-04-23 09:11 | 35.95162 | 33.96079 | 36970 ft | 453 kts | 305° |
| 2026-04-23 09:11 | 35.99123 | 33.90036 | 36971 ft | 452 kts | 303° |
| 2026-04-23 09:12 | 36.03018 | 33.83926 | 36976 ft | 452 kts | 303° |
| 2026-04-23 09:12 | 36.06914 | 33.77825 | 36975 ft | 452 kts | 303° |
| 2026-04-23 09:13 | 36.10823 | 33.71726 | 36970 ft | 452 kts | 303° |
| 2026-04-23 09:13 | 36.14704 | 33.65673 | 36968 ft | 452 kts | 303° |
| 2026-04-23 09:14 | 36.18605 | 33.59578 | 36966 ft | 451 kts | 303° |
| 2026-04-23 09:14 | 36.22506 | 33.53473 | 36970 ft | 451 kts | 303° |
| 2026-04-23 09:15 | 36.26398 | 33.47368 | 36967 ft | 452 kts | 303° |
| 2026-04-23 09:15 | 36.30276 | 33.41275 | 36978 ft | 452 kts | 303° |
| 2026-04-23 09:16 | 36.34188 | 33.35117 | 36965 ft | 451 kts | 303° |
| 2026-04-23 09:16 | 36.38040 | 33.29044 | 36965 ft | 451 kts | 303° |
| 2026-04-23 09:17 | 36.41921 | 33.22910 | 36949 ft | 451 kts | 302° |
| 2026-04-23 09:17 | 36.45787 | 33.16776 | 36945 ft | 451 kts | 302° |
| 2026-04-23 09:18 | 36.49651 | 33.10636 | 36949 ft | 451 kts | 302° |
| 2026-04-23 09:18 | 36.53515 | 33.04487 | 36946 ft | 450 kts | 302° |
| 2026-04-23 09:19 | 36.57371 | 32.98343 | 36948 ft | 450 kts | 302° |
| 2026-04-23 09:19 | 36.61227 | 32.92185 | 36944 ft | 450 kts | 302° |
| 2026-04-23 09:20 | 36.65074 | 32.86026 | 36942 ft | 451 kts | 302° |
| 2026-04-23 09:20 | 36.68901 | 32.79893 | 36938 ft | 451 kts | 302° |
| 2026-04-23 09:21 | 36.72754 | 32.73704 | 36944 ft | 451 kts | 302° |
| 2026-04-23 09:21 | 36.76597 | 32.67523 | 36944 ft | 451 kts | 302° |
| 2026-04-23 09:22 | 36.80438 | 32.61331 | 36930 ft | 451 kts | 302° |
| 2026-04-23 09:22 | 36.84285 | 32.55118 | 36940 ft | 453 kts | 302° |
| 2026-04-23 09:23 | 36.88115 | 32.48923 | 36945 ft | 453 kts | 302° |
| 2026-04-23 09:23 | 36.91976 | 32.42682 | 36944 ft | 453 kts | 302° |
| 2026-04-23 09:24 | 36.95823 | 32.36442 | 36937 ft | 453 kts | 302° |
| 2026-04-23 09:24 | 36.99673 | 32.30181 | 36940 ft | 453 kts | 302° |
| 2026-04-23 09:25 | 37.03526 | 32.23905 | 36946 ft | 454 kts | 302° |
| 2026-04-23 09:25 | 37.07350 | 32.17670 | 36946 ft | 454 kts | 302° |
| 2026-04-23 09:26 | 37.11199 | 32.11379 | 36951 ft | 455 kts | 302° |
| 2026-04-23 09:26 | 37.15044 | 32.05086 | 36939 ft | 452 kts | 302° |
| 2026-04-23 09:27 | 37.18848 | 31.98848 | 36941 ft | 453 kts | 302° |
| 2026-04-23 09:27 | 37.22677 | 31.92553 | 36943 ft | 454 kts | 302° |
| 2026-04-23 09:28 | 37.26510 | 31.86243 | 36943 ft | 453 kts | 302° |
| 2026-04-23 09:28 | 37.30339 | 31.79928 | 36932 ft | 454 kts | 302° |
| 2026-04-23 09:29 | 37.34160 | 31.73613 | 36933 ft | 454 kts | 302° |
| 2026-04-23 09:29 | 37.37934 | 31.67322 | 36934 ft | 452 kts | 300° |
| 2026-04-23 09:30 | 37.41391 | 31.60739 | 36918 ft | 450 kts | 297° |
| 2026-04-23 09:30 | 37.44727 | 31.54048 | 36935 ft | 451 kts | 297° |
| 2026-04-23 09:31 | 37.48099 | 31.47394 | 36926 ft | 450 kts | 297° |
| 2026-04-23 09:31 | 37.51496 | 31.40781 | 36930 ft | 450 kts | 298° |
| 2026-04-23 09:32 | 37.54901 | 31.34170 | 36958 ft | 449 kts | 298° |
| 2026-04-23 09:32 | 37.58277 | 31.27602 | 36935 ft | 449 kts | 298° |
| 2026-04-23 09:33 | 37.61664 | 31.20995 | 36932 ft | 448 kts | 297° |
| 2026-04-23 09:33 | 37.65040 | 31.14394 | 36927 ft | 447 kts | 297° |
| 2026-04-23 09:34 | 37.68407 | 31.07798 | 36926 ft | 447 kts | 297° |
| 2026-04-23 09:34 | 37.71770 | 31.01195 | 36931 ft | 447 kts | 297° |
| 2026-04-23 09:35 | 37.75132 | 30.94582 | 36941 ft | 447 kts | 297° |
| 2026-04-23 09:35 | 37.78466 | 30.88006 | 36929 ft | 447 kts | 297° |
| 2026-04-23 09:36 | 37.81824 | 30.81375 | 36931 ft | 448 kts | 297° |
| 2026-04-23 09:36 | 37.85186 | 30.74722 | 36921 ft | 448 kts | 297° |
| 2026-04-23 09:37 | 37.88542 | 30.68068 | 36914 ft | 448 kts | 297° |
| 2026-04-23 09:37 | 37.91835 | 30.61370 | 36909 ft | 447 kts | 296° |
| 2026-04-23 09:38 | 37.94990 | 30.54644 | 36908 ft | 447 kts | 295° |
| 2026-04-23 09:38 | 37.98160 | 30.47867 | 36904 ft | 447 kts | 295° |
| 2026-04-23 09:39 | 38.01346 | 30.41096 | 36907 ft | 447 kts | 296° |
| 2026-04-23 09:39 | 38.04536 | 30.34329 | 36929 ft | 445 kts | 295° |
| 2026-04-23 09:40 | 38.07686 | 30.27637 | 36915 ft | 443 kts | 295° |
| 2026-04-23 09:40 | 38.10841 | 30.20913 | 36917 ft | 443 kts | 295° |
| 2026-04-23 09:41 | 38.13994 | 30.14180 | 36944 ft | 444 kts | 295° |
| 2026-04-23 09:41 | 38.17146 | 30.07435 | 36930 ft | 443 kts | 295° |
| 2026-04-23 09:42 | 38.20291 | 30.00691 | 36939 ft | 443 kts | 295° |
| 2026-04-23 09:42 | 38.23402 | 29.94003 | 36930 ft | 441 kts | 295° |
| 2026-04-23 09:43 | 38.26527 | 29.87274 | 36949 ft | 442 kts | 295° |
| 2026-04-23 09:43 | 38.29653 | 29.80526 | 36965 ft | 442 kts | 295° |
| 2026-04-23 09:44 | 38.32772 | 29.73786 | 36946 ft | 442 kts | 295° |
| 2026-04-23 09:44 | 38.35358 | 29.68181 | 36954 ft | 441 kts | 295° |
| 2026-04-23 09:45 | 38.38972 | 29.60336 | 36952 ft | 442 kts | 295° |
| 2026-04-23 09:45 | 38.41564 | 29.54699 | 36956 ft | 442 kts | 295° |
| 2026-04-23 09:46 | 38.44691 | 29.47884 | 36958 ft | 442 kts | 295° |
| 2026-04-23 09:46 | 38.47772 | 29.41154 | 36952 ft | 442 kts | 295° |
| 2026-04-23 09:47 | 38.50873 | 29.34367 | 36956 ft | 442 kts | 295° |
| 2026-04-23 09:47 | 38.53968 | 29.27577 | 36954 ft | 442 kts | 295° |
| 2026-04-23 09:48 | 38.57063 | 29.20774 | 36956 ft | 441 kts | 295° |
| 2026-04-23 09:48 | 38.60144 | 29.13990 | 36955 ft | 440 kts | 295° |
| 2026-04-23 09:49 | 38.63211 | 29.07218 | 36957 ft | 440 kts | 295° |
| 2026-04-23 09:49 | 38.66275 | 29.00437 | 36960 ft | 440 kts | 295° |
| 2026-04-23 09:50 | 38.69324 | 28.93676 | 36962 ft | 440 kts | 295° |
| 2026-04-23 09:50 | 38.72386 | 28.86873 | 36958 ft | 441 kts | 295° |
| 2026-04-23 09:51 | 38.75446 | 28.80060 | 36957 ft | 441 kts | 295° |
| 2026-04-23 09:51 | 38.78507 | 28.73230 | 36961 ft | 441 kts | 295° |
| 2026-04-23 09:52 | 38.81542 | 28.66444 | 36960 ft | 441 kts | 295° |
| 2026-04-23 09:52 | 38.84590 | 28.59611 | 36962 ft | 442 kts | 295° |
| 2026-04-23 09:53 | 38.87640 | 28.52760 | 36966 ft | 442 kts | 295° |
| 2026-04-23 09:53 | 38.90690 | 28.45896 | 36969 ft | 442 kts | 295° |
| 2026-04-23 09:54 | 38.93739 | 28.39019 | 36976 ft | 442 kts | 295° |
| 2026-04-23 09:54 | 38.96759 | 28.32193 | 36976 ft | 441 kts | 295° |
| 2026-04-23 09:55 | 38.99782 | 28.25348 | 36980 ft | 440 kts | 295° |
| 2026-04-23 09:55 | 39.02796 | 28.18504 | 36987 ft | 439 kts | 295° |
| 2026-04-23 09:56 | 39.05804 | 28.11658 | 37020 ft | 440 kts | 295° |
| 2026-04-23 09:56 | 39.08804 | 28.04819 | 37005 ft | 438 kts | 295° |
| 2026-04-23 09:57 | 39.11717 | 27.97975 | 37005 ft | 434 kts | 294° |
| 2026-04-23 09:57 | 39.14564 | 27.91122 | 37000 ft | 434 kts | 294° |
| 2026-04-23 09:58 | 39.17418 | 27.84258 | 37001 ft | 434 kts | 294° |
| 2026-04-23 09:58 | 39.20255 | 27.77453 | 37011 ft | 434 kts | 294° |
| 2026-04-23 09:59 | 39.23119 | 27.70582 | 37004 ft | 434 kts | 294° |
| 2026-04-23 09:59 | 39.25972 | 27.63723 | 37005 ft | 434 kts | 294° |
| 2026-04-23 10:00 | 39.28807 | 27.56891 | 37013 ft | 434 kts | 294° |
| 2026-04-23 10:00 | 39.31655 | 27.50012 | 37014 ft | 434 kts | 294° |
| 2026-04-23 10:01 | 39.34495 | 27.43135 | 37014 ft | 434 kts | 294° |
| 2026-04-23 10:01 | 39.37330 | 27.36255 | 37012 ft | 434 kts | 294° |
| 2026-04-23 10:02 | 39.40167 | 27.29358 | 37017 ft | 434 kts | 294° |
| 2026-04-23 10:02 | 39.42977 | 27.22507 | 37004 ft | 433 kts | 294° |
| 2026-04-23 10:03 | 39.45803 | 27.15606 | 37030 ft | 434 kts | 294° |
| 2026-04-23 10:03 | 39.48638 | 27.08664 | 37022 ft | 437 kts | 293° |
| 2026-04-23 10:04 | 39.51479 | 27.01691 | 37020 ft | 437 kts | 294° |
| 2026-04-23 10:04 | 39.54296 | 26.94764 | 37021 ft | 437 kts | 293° |
| 2026-04-23 10:05 | 39.57126 | 26.87789 | 37023 ft | 437 kts | 293° |
| 2026-04-23 10:05 | 39.59965 | 26.80771 | 37021 ft | 441 kts | 294° |
| 2026-04-23 10:06 | 39.62800 | 26.73749 | 37023 ft | 442 kts | 294° |
| 2026-04-23 10:06 | 39.65656 | 26.66662 | 37018 ft | 442 kts | 294° |
| 2026-04-23 10:07 | 39.68505 | 26.59577 | 37017 ft | 442 kts | 294° |
| 2026-04-23 10:07 | 39.71346 | 26.52492 | 37025 ft | 443 kts | 294° |
| 2026-04-23 10:08 | 39.74183 | 26.45400 | 37026 ft | 445 kts | 294° |
| 2026-04-23 10:08 | 39.77020 | 26.38292 | 37027 ft | 445 kts | 294° |
| 2026-04-23 10:09 | 39.81196 | 26.27799 | 37030 ft | 445 kts | 294° |
| 2026-04-23 10:09 | 39.84039 | 26.20633 | 37037 ft | 446 kts | 294° |
| 2026-04-23 10:10 | 39.86886 | 26.13441 | 37037 ft | 448 kts | 294° |
| 2026-04-23 10:10 | 39.89735 | 26.06227 | 37036 ft | 448 kts | 294° |
| 2026-04-23 10:11 | 39.92577 | 25.99013 | 37045 ft | 448 kts | 294° |
| 2026-04-23 10:11 | 39.95418 | 25.91785 | 37044 ft | 448 kts | 294° |
| 2026-04-23 10:12 | 39.98234 | 25.84603 | 37046 ft | 448 kts | 294° |
| 2026-04-23 10:12 | 40.01065 | 25.77362 | 37046 ft | 448 kts | 294° |
| 2026-04-23 10:13 | 40.03895 | 25.70110 | 37038 ft | 448 kts | 294° |
| 2026-04-23 10:13 | 40.06718 | 25.62856 | 37059 ft | 448 kts | 294° |
| 2026-04-23 10:14 | 40.09547 | 25.55570 | 37064 ft | 450 kts | 294° |
| 2026-04-23 10:14 | 40.12370 | 25.48280 | 37058 ft | 454 kts | 295° |